createdAt,value
2022-12-04T00:00:00.460Z,2
2022-12-04T00:05:22.322Z,2
2022-12-04T00:11:00.769Z,2
2022-12-04T00:16:30.172Z,2
2022-12-04T00:22:24.340Z,2
2022-12-04T00:27:43.983Z,2
2022-12-04T00:33:20.209Z,2
2022-12-04T00:38:37.295Z,1.9
2022-12-04T00:44:08.833Z,1.9
2022-12-04T00:49:55.403Z,1.9
2022-12-04T00:55:07.641Z,1.9
2022-12-04T01:01:01.562Z,1.9
2022-12-04T01:06:16.206Z,1.9
2022-12-04T01:11:45.660Z,1.9
2022-12-04T01:17:39.447Z,1.9
2022-12-04T01:23:02.967Z,1.9
2022-12-04T01:28:38.852Z,1.9
2022-12-04T01:33:55.539Z,1.9
2022-12-04T01:39:31.243Z,1.9
2022-12-04T01:45:06.867Z,1.8
2022-12-04T01:50:54.749Z,1.8
2022-12-04T01:56:01.018Z,1.8
2022-12-04T02:01:55.841Z,1.8
2022-12-04T02:07:24.891Z,1.7
2022-12-04T02:12:42.416Z,1.8
2022-12-04T02:18:25.084Z,1.7
2022-12-04T02:24:08.053Z,1.8
2022-12-04T02:29:14.295Z,1.7
2022-12-04T02:35:12.370Z,1.7
2022-12-04T02:40:30.557Z,1.7
2022-12-04T02:46:10.147Z,1.7
2022-12-04T02:51:24.384Z,1.7
2022-12-04T02:57:00.845Z,1.7
2022-12-04T03:02:25.156Z,1.7
2022-12-04T03:07:59.665Z,1.7
2022-12-04T03:13:54.540Z,1.7
2022-12-04T03:18:59.126Z,1.7
2022-12-04T03:24:40.658Z,1.7
2022-12-04T03:30:18.415Z,1.7
2022-12-04T03:35:43.082Z,1.7
2022-12-04T03:41:28.408Z,1.7
2022-12-04T03:46:42.946Z,1.7
2022-12-04T03:52:17.862Z,1.7
2022-12-04T03:58:10.735Z,1.7
2022-12-04T04:03:26.704Z,1.7
2022-12-04T04:08:53.637Z,1.7
2022-12-04T04:14:42.957Z,1.7
2022-12-04T04:20:00.968Z,1.7
2022-12-04T04:25:46.521Z,1.7
2022-12-04T04:30:54.476Z,1.7
2022-12-04T04:36:42.284Z,1.7
2022-12-04T04:41:56.781Z,1.8
2022-12-04T04:47:33.138Z,1.8
2022-12-04T04:53:23.090Z,1.7
2022-12-04T04:58:44.937Z,1.7
2022-12-04T05:04:31.001Z,1.7
2022-12-04T05:09:46.847Z,1.8
2022-12-04T05:15:33.685Z,1.8
2022-12-04T05:20:39.113Z,1.8
2022-12-04T05:26:29.817Z,1.8
2022-12-04T05:32:08.107Z,1.8
2022-12-04T05:37:22.682Z,1.8
2022-12-04T05:42:59.139Z,1.9
2022-12-04T05:48:20.944Z,1.8
2022-12-04T05:53:55.138Z,1.9
2022-12-04T05:59:35.496Z,1.9
2022-12-04T06:05:01.551Z,1.8
2022-12-04T06:10:23.432Z,1.9
2022-12-04T06:16:16.190Z,1.8
2022-12-04T06:21:42.963Z,1.8
2022-12-04T06:27:31.489Z,1.8
2022-12-04T06:32:34.070Z,1.8
2022-12-04T06:38:01.388Z,1.9
2022-12-04T06:43:44.119Z,1.9
2022-12-04T06:49:13.910Z,1.9
2022-12-04T06:54:37.743Z,1.9
2022-12-04T07:00:18.528Z,1.9
2022-12-04T07:05:57.582Z,1.9
2022-12-04T07:11:38.586Z,1.9
2022-12-04T07:16:47.624Z,1.9
2022-12-04T07:22:22.619Z,1.9
2022-12-04T07:28:10.351Z,1.9
2022-12-04T07:33:41.401Z,1.9
2022-12-04T07:39:15.472Z,1.9
2022-12-04T07:44:44.291Z,1.9
2022-12-04T07:50:08.379Z,2
2022-12-04T07:55:48.966Z,1.9
2022-12-04T08:00:55.162Z,1.9
2022-12-04T08:06:29.471Z,2
2022-12-04T08:12:12.784Z,2
2022-12-04T08:17:33.061Z,2
2022-12-04T08:23:10.595Z,2
2022-12-04T08:28:58.981Z,2
2022-12-04T08:34:21.437Z,2
2022-12-04T08:40:01.034Z,2
2022-12-04T08:45:08.489Z,2
2022-12-04T08:51:01.771Z,2.1
2022-12-04T08:56:33.673Z,2.1
2022-12-04T09:01:45.260Z,2.1
2022-12-04T09:07:27.352Z,2
2022-12-04T09:12:50.243Z,2.1
2022-12-04T09:18:27.399Z,2.1
2022-12-04T09:24:07.546Z,2.2
2022-12-04T09:29:50.234Z,2.2
2022-12-04T09:34:57.941Z,2.2
2022-12-04T09:40:37.396Z,2.3
2022-12-04T09:46:19.262Z,2.4
2022-12-04T09:51:55.140Z,2.3
2022-12-04T09:57:15.836Z,2.3
2022-12-04T10:02:52.285Z,2.3
2022-12-04T10:08:19.396Z,2.4
2022-12-04T10:13:59.709Z,2.3
2022-12-04T10:19:37.700Z,2.4
2022-12-04T10:24:49.847Z,2.4
2022-12-04T10:30:33.586Z,2.5
2022-12-04T10:36:05.931Z,2.4
2022-12-04T10:41:37.819Z,2.5
2022-12-04T10:46:50.825Z,2.5
2022-12-04T10:52:47.241Z,2.5
2022-12-04T10:57:51.604Z,2.6
2022-12-04T11:03:39.700Z,2.5
2022-12-04T11:09:20.930Z,2.6
2022-12-04T11:14:50.104Z,2.6
2022-12-04T11:20:04.874Z,2.5
2022-12-04T11:25:31.781Z,2.4
2022-12-04T11:31:24.328Z,2.5
2022-12-04T11:36:47.636Z,2.5
2022-12-04T11:42:25.839Z,2.5
2022-12-04T11:47:45.597Z,2.5
2022-12-04T11:53:20.592Z,2.3
2022-12-04T11:58:45.884Z,2.3
2022-12-04T12:04:17.528Z,2.3
2022-12-04T12:09:54.942Z,2.3
2022-12-04T12:15:47.281Z,2.5
2022-12-04T12:20:55.142Z,2.5
2022-12-04T12:26:45.178Z,2.5
2022-12-04T12:32:10.442Z,2.7
2022-12-04T12:37:48.229Z,2.7
2022-12-04T12:43:23.125Z,2.8
2022-12-04T12:48:45.305Z,2.9
2022-12-04T12:54:17.344Z,2.7
2022-12-04T12:59:46.188Z,2.8
2022-12-04T13:05:34.260Z,3
2022-12-04T13:10:44.062Z,3.1
2022-12-04T13:16:33.824Z,3.1
2022-12-04T13:22:03.973Z,3.1
2022-12-04T13:27:39.801Z,3.1
2022-12-04T13:32:57.718Z,3.1
2022-12-04T13:38:42.606Z,3.1
2022-12-04T13:44:13.175Z,3.2
2022-12-04T13:49:43.551Z,3
2022-12-04T13:55:20.172Z,2.9
2022-12-04T14:00:32.079Z,3
2022-12-04T14:06:02.931Z,3
2022-12-04T14:11:37.101Z,2.9
2022-12-04T14:17:23.627Z,3
2022-12-04T14:22:45.751Z,3.1
2022-12-04T14:28:22.457Z,3.1
2022-12-04T14:33:56.190Z,3
2022-12-04T14:39:12.725Z,3.2
2022-12-04T14:44:51.505Z,3.2
2022-12-04T14:50:17.626Z,3.3
2022-12-04T14:55:57.095Z,3.2
2022-12-04T15:01:39.305Z,3.2
2022-12-04T15:06:58.467Z,3.2
2022-12-04T15:12:39.416Z,3.2
2022-12-04T15:17:57.343Z,3.2
2022-12-04T15:23:30.872Z,3.1
2022-12-04T15:29:14.788Z,3.1
2022-12-04T15:34:49.060Z,3
2022-12-04T15:40:12.560Z,3
2022-12-04T15:45:54.796Z,3
2022-12-04T15:51:08.661Z,2.8
2022-12-04T15:57:01.051Z,2.8
2022-12-04T16:02:09.977Z,2.8
2022-12-04T16:07:52.201Z,2.8
2022-12-04T16:13:31.189Z,2.8
2022-12-04T16:19:13.003Z,2.8
2022-12-04T16:24:25.867Z,2.8
2022-12-04T16:30:11.780Z,2.8
2022-12-04T16:35:31.723Z,2.7
2022-12-04T16:41:12.597Z,2.7
2022-12-04T16:46:41.524Z,2.7
2022-12-04T16:52:06.499Z,2.7
2022-12-04T16:57:42.647Z,2.8
2022-12-04T17:03:25.791Z,2.8
2022-12-04T17:08:37.099Z,2.8
2022-12-04T17:14:05.976Z,2.8
2022-12-04T17:19:40.492Z,2.7
2022-12-04T17:25:18.880Z,2.8
2022-12-04T17:30:57.485Z,2.8
2022-12-04T17:36:12.515Z,2.8
2022-12-04T17:41:51.349Z,2.8
2022-12-04T17:47:31.601Z,2.8
2022-12-04T17:53:06.132Z,2.8
2022-12-04T17:58:22.721Z,2.8
2022-12-04T18:03:48.454Z,2.8
2022-12-04T18:09:31.873Z,2.8
2022-12-04T18:15:07.963Z,2.9
2022-12-04T18:20:42.880Z,2.9
2022-12-04T18:25:56.313Z,2.9
2022-12-04T18:31:32.051Z,2.9
2022-12-04T18:37:25.658Z,2.8
2022-12-04T18:42:45.572Z,2.8
2022-12-04T18:48:15.441Z,2.9
2022-12-04T18:54:01.628Z,2.9
2022-12-04T18:59:23.817Z,2.9
2022-12-04T19:04:52.051Z,2.7
2022-12-04T19:10:11.374Z,2.7
2022-12-04T19:15:48.335Z,2.7
2022-12-04T19:21:13.420Z,2.7
2022-12-04T19:27:12.300Z,2.7
2022-12-04T19:32:33.985Z,2.7
2022-12-04T19:38:01.929Z,2.7
2022-12-04T19:43:26.868Z,2.7
2022-12-04T19:49:13.726Z,2.7
2022-12-04T19:54:43.031Z,2.7
2022-12-04T20:00:03.854Z,2.7
2022-12-04T20:05:44.251Z,2.7
2022-12-04T20:11:10.915Z,2.7
2022-12-04T20:16:31.849Z,2.7
2022-12-04T20:22:20.178Z,2.7
2022-12-04T20:27:33.347Z,2.7
2022-12-04T20:33:21.079Z,2.7
2022-12-04T20:38:45.301Z,2.7
2022-12-04T20:44:28.306Z,2.7
2022-12-04T20:49:56.694Z,2.7
2022-12-04T20:55:11.757Z,2.7
2022-12-04T21:01:04.693Z,2.8
2022-12-04T21:06:31.113Z,2.7
2022-12-04T21:11:53.532Z,2.7
2022-12-04T21:17:22.326Z,2.8
2022-12-04T21:23:05.773Z,2.8
2022-12-04T21:28:31.966Z,2.8
2022-12-04T21:34:15.318Z,2.8
2022-12-04T21:39:36.672Z,2.8
2022-12-04T21:45:23.158Z,2.8
2022-12-04T21:50:45.040Z,2.8
2022-12-04T21:56:14.067Z,2.9
2022-12-04T22:01:59.443Z,2.9
2022-12-04T22:07:26.920Z,3
2022-12-04T22:12:52.348Z,3
2022-12-04T22:18:19.278Z,3
2022-12-04T22:24:00.053Z,3
2022-12-04T22:29:52.003Z,3.1
2022-12-04T22:34:56.581Z,3.2
2022-12-04T22:40:19.077Z,3.2
2022-12-04T22:46:10.925Z,3.3
2022-12-04T22:51:41.284Z,3.2
2022-12-04T22:57:03.317Z,3.2
2022-12-04T23:02:27.371Z,3.2
2022-12-04T23:08:14.650Z,3.1
2022-12-04T23:13:43.632Z,3.1
2022-12-04T23:19:07.127Z,3.1
2022-12-04T23:24:39.719Z,3
2022-12-04T23:30:24.515Z,3
2022-12-04T23:35:52.985Z,2.9
2022-12-04T23:41:16.588Z,2.9
2022-12-04T23:46:43.157Z,2.8
2022-12-04T23:52:11.360Z,2.8
2022-12-04T23:57:45.341Z,2.9
